Time;durP1;ratioP1;P1;durP2;ratioP2;P2;SDS_P1;SDS_P2;PMS_P1;PMS_P2;Temp;Humidity;BMP_temperature;BMP_pressure;BME280_temperature;BME280_humidity;BME280_pressure;Samples;Min_cycle;Max_cycle;Signal;HPM_P1;HPM_P2
2023/04/20 00:01:03;;;;;;;7.22;4.35;;;8.60;67.30;;;;;;5002841;28;20037;-70
2023/04/20 00:03:31;;;;;;;6.78;3.75;;;8.60;67.60;;;;;;4980901;28;20043;-69
2023/04/20 00:06:00;;;;;;;7.07;4.10;;;8.60;68.70;;;;;;4985488;28;20056;-69
2023/04/20 00:08:26;;;;;;;5.15;3.78;;;8.60;68.70;;;;;;4996698;28;20049;-69
2023/04/20 00:10:52;;;;;;;5.93;3.70;;;8.60;69.40;;;;;;5000990;28;20042;-69
2023/04/20 00:13:18;;;;;;;7.07;4.20;;;8.60;69.60;;;;;;5006482;28;20057;-69
2023/04/20 00:15:44;;;;;;;6.00;3.67;;;8.60;69.70;;;;;;4999234;28;20037;-70
2023/04/20 00:18:09;;;;;;;7.03;3.90;;;8.60;70.50;;;;;;4992850;28;20437;-70
2023/04/20 00:20:35;;;;;;;6.05;3.60;;;8.60;70.90;;;;;;4984624;28;20057;-69
2023/04/20 00:23:02;;;;;;;5.95;4.05;;;8.60;70.90;;;;;;4999063;28;20037;-70
2023/04/20 00:25:29;;;;;;;5.70;3.90;;;8.60;71.20;;;;;;4999091;28;20049;-69
2023/04/20 00:27:55;;;;;;;7.53;3.80;;;8.60;71.50;;;;;;5000984;28;20045;-70
2023/04/20 00:30:21;;;;;;;9.15;4.13;;;8.60;71.80;;;;;;5006572;28;20116;-70
2023/04/20 00:32:46;;;;;;;7.95;4.20;;;8.50;72.10;;;;;;5000487;28;20642;-70
2023/04/20 00:35:12;;;;;;;7.32;4.15;;;8.50;72.30;;;;;;5001695;28;20046;-69
2023/04/20 00:37:38;;;;;;;5.18;3.83;;;8.50;73.50;;;;;;4987342;28;20529;-69
2023/04/20 00:40:04;;;;;;;6.97;4.07;;;8.50;72.60;;;;;;5005265;28;20057;-69
2023/04/20 00:42:30;;;;;;;8.23;4.05;;;8.50;72.70;;;;;;5005572;28;20037;-69
2023/04/20 00:44:56;;;;;;;5.80;3.70;;;8.50;72.80;;;;;;5001526;28;20065;-69
2023/04/20 00:47:21;;;;;;;6.43;3.97;;;8.60;73.90;;;;;;5007229;28;20049;-70
2023/04/20 00:49:47;;;;;;;8.48;4.03;;;8.50;73.20;;;;;;5004967;28;20140;-70
2023/04/20 00:52:13;;;;;;;9.73;3.78;;;8.60;73.70;;;;;;4986192;28;20049;-69
2023/04/20 00:54:39;;;;;;;5.20;3.60;;;8.50;73.60;;;;;;4998919;28;20659;-69
2023/04/20 00:57:05;;;;;;;6.38;3.90;;;8.60;73.80;;;;;;4983406;28;20050;-69
2023/04/20 00:59:31;;;;;;;6.97;4.43;;;8.60;73.90;;;;;;5004095;28;20049;-70
2023/04/20 01:01:57;;;;;;;6.28;3.90;;;8.60;74.40;;;;;;5000779;28;20044;-69
2023/04/20 01:04:23;;;;;;;7.63;3.65;;;8.60;74.30;;;;;;4997924;28;20396;-69
2023/04/20 01:06:48;;;;;;;7.20;3.80;;;8.60;74.60;;;;;;4988502;28;20053;-70
2023/04/20 01:09:14;;;;;;;6.43;3.88;;;8.60;74.70;;;;;;5001254;28;20045;-70
2023/04/20 01:11:40;;;;;;;8.35;3.90;;;8.60;74.40;;;;;;4998640;28;20046;-70
2023/04/20 01:14:06;;;;;;;5.25;3.42;;;8.70;74.20;;;;;;4994653;28;20041;-69
2023/04/20 01:16:33;;;;;;;5.93;3.58;;;8.70;73.80;;;;;;5001467;28;20050;-68
2023/04/20 01:19:02;;;;;;;;;;;8.70;73.40;;;;;;4993149;28;20509;-68
2023/04/20 01:21:27;;;;;;;6.40;3.47;;;8.80;73.20;;;;;;4983111;28;19982;-69
2023/04/20 01:23:53;;;;;;;8.88;3.88;;;8.80;72.90;;;;;;4998790;28;20065;-68
2023/04/20 01:26:21;;;;;;;9.18;3.35;;;8.80;72.80;;;;;;5000106;28;20042;-69
2023/04/20 01:28:46;;;;;;;8.13;3.15;;;8.90;72.70;;;;;;4996159;28;20066;-68
2023/04/20 01:31:12;;;;;;;4.40;3.10;;;8.90;72.60;;;;;;4997220;28;20080;-69
2023/04/20 01:33:39;;;;;;;7.90;3.65;;;8.90;72.40;;;;;;5001557;28;20050;-68
2023/04/20 01:36:06;;;;;;;8.75;3.53;;;8.90;72.30;;;;;;5004207;28;20030;-69
2023/04/20 01:38:33;;;;;;;5.20;3.38;;;9.00;72.30;;;;;;4999656;28;20038;-69
2023/04/20 01:41:00;;;;;;;4.68;3.00;;;8.90;72.10;;;;;;4998890;28;20061;-69
2023/04/20 01:43:26;;;;;;;7.22;3.50;;;9.00;72.50;;;;;;5003430;28;20050;-69
2023/04/20 01:45:52;;;;;;;6.65;3.33;;;9.00;72.50;;;;;;4990289;28;20065;-69
2023/04/20 01:48:17;;;;;;;6.75;3.25;;;8.90;72.40;;;;;;5004905;28;20034;-69
2023/04/20 01:50:43;;;;;;;7.25;3.25;;;8.90;72.40;;;;;;4984863;28;20074;-69
2023/04/20 01:53:09;;;;;;;5.78;3.38;;;8.90;72.50;;;;;;5006429;28;20046;-68
2023/04/20 01:55:35;;;;;;;7.53;3.42;;;8.90;72.50;;;;;;5000743;28;20085;-68
2023/04/20 01:58:00;;;;;;;6.15;3.05;;;9.00;72.60;;;;;;4991646;28;20038;-69
2023/04/20 02:00:26;;;;;;;7.45;3.38;;;9.00;72.60;;;;;;4991555;28;20057;-69
2023/04/20 02:02:52;;;;;;;7.28;3.30;;;9.00;72.80;;;;;;5007475;28;20053;-69
2023/04/20 02:05:17;;;;;;;7.18;3.33;;;9.00;72.90;;;;;;5007832;28;20048;-68
2023/04/20 02:07:43;;;;;;;4.25;3.15;;;9.00;73.10;;;;;;5010713;28;20393;-69
2023/04/20 02:10:09;;;;;;;7.47;3.45;;;9.00;73.30;;;;;;4990850;28;20582;-69
2023/04/20 02:12:35;;;;;;;5.55;3.28;;;9.00;73.10;;;;;;5007482;28;20519;-68
2023/04/20 02:15:01;;;;;;;5.68;2.90;;;9.00;73.10;;;;;;5001024;28;20041;-69
2023/04/20 02:17:27;;;;;;;6.00;3.35;;;9.00;73.30;;;;;;5008501;28;20552;-69
2023/04/20 02:19:52;;;;;;;5.22;3.03;;;8.90;73.40;;;;;;5002777;28;20037;-69
2023/04/20 02:22:18;;;;;;;6.72;3.25;;;8.90;73.60;;;;;;4976733;28;20602;-69
2023/04/20 02:24:44;;;;;;;6.38;3.20;;;9.00;73.60;;;;;;5005578;28;20037;-69
2023/04/20 02:27:10;;;;;;;6.05;3.25;;;9.00;73.80;;;;;;5010481;28;20450;-68
2023/04/20 02:29:35;;;;;;;6.38;2.95;;;9.00;74.20;;;;;;5008023;28;20060;-69
2023/04/20 02:32:01;;;;;;;8.23;3.70;;;8.90;74.40;;;;;;5006000;28;20058;-68
2023/04/20 02:34:30;;;;;;;8.65;3.58;;;8.90;74.80;;;;;;5003981;28;20057;-70
2023/04/20 02:36:55;;;;;;;9.55;3.40;;;8.90;75.30;;;;;;5008532;28;20038;-68
2023/04/20 02:39:21;;;;;;;7.10;3.40;;;8.90;75.60;;;;;;5003592;28;20438;-68
2023/04/20 02:41:46;;;;;;;8.32;3.25;;;8.80;75.70;;;;;;4989932;28;20050;-68
2023/04/20 02:44:15;;;;;;;6.82;3.05;;;8.80;76.00;;;;;;4996207;28;20053;-69
2023/04/20 02:46:40;;;;;;;6.75;3.40;;;8.80;76.50;;;;;;5005693;28;20034;-68
2023/04/20 02:49:06;;;;;;;6.60;3.70;;;8.80;77.10;;;;;;4985278;28;20282;-69
2023/04/20 02:51:32;;;;;;;5.00;3.38;;;8.80;77.40;;;;;;5003004;28;20102;-68
2023/04/20 02:53:58;;;;;;;6.82;3.40;;;8.70;78.50;;;;;;5004874;28;20042;-68
2023/04/20 02:56:23;;;;;;;6.97;3.58;;;8.70;78.60;;;;;;5010003;28;20597;-68
2023/04/20 02:58:51;;;;;;;6.30;3.22;;;8.70;79.00;;;;;;4999414;28;20050;-68
2023/04/20 03:01:16;;;;;;;7.85;3.88;;;8.70;79.40;;;;;;5002653;28;20322;-68
2023/04/20 03:03:42;;;;;;;5.93;3.60;;;8.70;80.50;;;;;;5000874;28;20129;-69
2023/04/20 03:06:08;;;;;;;8.02;3.50;;;8.70;80.70;;;;;;4979049;28;20073;-68
2023/04/20 03:08:33;;;;;;;7.25;3.80;;;8.60;81.10;;;;;;4999832;28;20380;-68
2023/04/20 03:10:59;;;;;;;7.32;4.07;;;8.60;81.60;;;;;;5004309;28;20042;-68
2023/04/20 03:13:24;;;;;;;8.27;4.65;;;8.60;81.40;;;;;;5006255;28;20049;-68
2023/04/20 03:15:50;;;;;;;9.73;4.80;;;8.60;82.00;;;;;;5005166;28;20053;-69
2023/04/20 03:18:16;;;;;;;9.65;4.88;;;8.60;82.20;;;;;;5002933;28;20037;-68
2023/04/20 03:20:41;;;;;;;11.63;4.95;;;8.60;82.40;;;;;;5001172;28;20042;-68
2023/04/20 03:23:07;;;;;;;10.75;5.90;;;8.60;82.60;;;;;;4998636;28;20038;-68
2023/04/20 03:25:33;;;;;;;10.77;6.05;;;8.60;83.10;;;;;;5007355;28;20050;-69
2023/04/20 03:27:58;;;;;;;11.68;6.18;;;8.60;83.60;;;;;;4981940;28;20084;-69
2023/04/20 03:30:24;;;;;;;12.23;6.25;;;8.60;83.50;;;;;;4981877;28;20056;-69
2023/04/20 03:32:50;;;;;;;10.75;6.32;;;8.60;83.70;;;;;;4993359;28;20066;-69
2023/04/20 03:35:16;;;;;;;11.40;6.22;;;8.60;83.60;;;;;;4995938;28;20045;-69
2023/04/20 03:37:42;;;;;;;14.13;6.50;;;8.60;83.80;;;;;;5001472;28;20413;-69
2023/04/20 03:40:09;;;;;;;12.25;6.13;;;8.60;84.20;;;;;;5001343;28;20030;-69
2023/04/20 03:42:36;;;;;;;9.23;5.85;;;8.60;83.80;;;;;;5006782;28;20057;-69
2023/04/20 03:45:02;;;;;;;9.00;5.30;;;8.50;83.40;;;;;;5002915;28;20136;-68
2023/04/20 03:47:27;;;;;;;12.48;4.93;;;8.60;83.30;;;;;;5003351;28;20113;-69
2023/04/20 03:49:53;;;;;;;8.57;4.70;;;8.60;83.00;;;;;;4985704;28;20069;-69
2023/04/20 03:52:19;;;;;;;6.75;3.92;;;8.60;82.50;;;;;;5004344;28;20045;-68
2023/04/20 03:54:44;;;;;;;8.30;3.35;;;8.60;81.90;;;;;;5006870;28;20053;-69
2023/04/20 03:57:10;;;;;;;9.98;3.70;;;8.60;81.30;;;;;;5006388;28;20088;-69
2023/04/20 03:59:35;;;;;;;5.72;3.50;;;8.60;79.90;;;;;;5002063;28;20041;-68
2023/04/20 04:02:01;;;;;;;6.70;3.47;;;8.60;78.80;;;;;;5000450;28;20048;-69
2023/04/20 04:04:27;;;;;;;7.40;3.30;;;8.70;77.40;;;;;;5008250;28;20112;-69
2023/04/20 04:06:52;;;;;;;9.13;3.47;;;8.70;77.00;;;;;;5005045;28;20045;-68
2023/04/20 04:09:18;;;;;;;5.90;3.97;;;8.70;76.70;;;;;;4981504;28;20580;-69
2023/04/20 04:11:44;;;;;;;6.60;3.80;;;8.60;76.60;;;;;;5006298;28;20046;-68
2023/04/20 04:14:09;;;;;;;6.30;3.35;;;8.70;76.20;;;;;;5001567;28;20043;-68
2023/04/20 04:16:35;;;;;;;6.28;3.55;;;8.70;76.00;;;;;;5004091;28;20045;-69
2023/04/20 04:19:01;;;;;;;6.63;3.33;;;8.70;76.00;;;;;;5004679;28;20082;-69
2023/04/20 04:21:27;;;;;;;5.68;3.50;;;8.60;76.00;;;;;;5004325;28;20038;-69
2023/04/20 04:23:56;;;;;;;6.18;3.63;;;8.70;76.00;;;;;;5000660;28;20042;-69
2023/04/20 04:26:23;;;;;;;6.93;3.50;;;8.60;75.80;;;;;;5001676;28;20038;-69
2023/04/20 04:28:50;;;;;;;7.18;3.67;;;8.70;75.70;;;;;;4999893;28;20062;-69
2023/04/20 04:31:18;;;;;;;6.20;3.55;;;8.70;75.60;;;;;;5004503;28;20050;-69
2023/04/20 04:33:46;;;;;;;;;;;8.60;75.50;;;;;;5002371;28;20047;-69
2023/04/20 04:36:14;;;;;;;6.75;3.28;;;8.60;75.80;;;;;;5006101;28;19921;-68
2023/04/20 04:38:43;;;;;;;6.38;3.45;;;8.70;75.60;;;;;;4999619;28;20060;-68
2023/04/20 04:41:09;;;;;;;7.45;3.65;;;8.60;75.70;;;;;;4999339;28;20482;-68
2023/04/20 04:43:35;;;;;;;5.85;3.50;;;8.60;75.80;;;;;;4976343;28;20049;-68
2023/04/20 04:46:08;;;;;;;5.20;3.42;;;8.60;75.80;;;;;;4998822;28;20094;-69
2023/04/20 04:48:34;;;;;;;10.05;3.70;;;8.60;75.20;;;;;;5003431;28;20042;-69
2023/04/20 04:51:00;;;;;;;6.85;3.42;;;8.60;75.30;;;;;;4999929;28;20050;-69
2023/04/20 04:53:26;;;;;;;8.02;3.50;;;8.60;74.70;;;;;;4984879;28;20057;-68
2023/04/20 04:55:52;;;;;;;8.77;3.67;;;8.60;74.80;;;;;;4998504;28;20147;-69
2023/04/20 04:58:17;;;;;;;7.72;3.35;;;8.60;74.40;;;;;;5005707;28;20050;-68
2023/04/20 05:00:47;;;;;;;6.80;3.47;;;8.60;74.30;;;;;;5004096;28;20049;-68
2023/04/20 05:03:12;;;;;;;6.80;3.13;;;8.50;74.10;;;;;;4998992;28;20042;-69
2023/04/20 05:05:38;;;;;;;6.22;3.60;;;8.50;74.30;;;;;;5001287;28;20508;-68
2023/04/20 05:08:04;;;;;;;7.05;3.58;;;8.50;74.50;;;;;;5002558;28;20077;-69
2023/04/20 05:10:29;;;;;;;6.97;3.60;;;8.50;74.50;;;;;;5000319;28;20046;-68
2023/04/20 05:12:57;;;;;;;6.97;3.50;;;8.50;74.60;;;;;;5005330;28;20045;-69
2023/04/20 05:15:23;;;;;;;8.05;3.42;;;8.50;74.90;;;;;;4996192;28;20129;-68
2023/04/20 05:17:49;;;;;;;10.93;4.22;;;8.50;75.10;;;;;;4998412;28;20068;-68
2023/04/20 05:20:14;;;;;;;7.03;3.75;;;8.50;75.20;;;;;;5002962;28;20088;-68
2023/04/20 05:22:40;;;;;;;7.50;3.90;;;8.50;75.80;;;;;;4998772;28;20038;-69
2023/04/20 05:25:06;;;;;;;5.70;3.78;;;8.40;75.20;;;;;;4995327;28;20046;-68
2023/04/20 05:27:32;;;;;;;7.53;4.00;;;8.50;75.50;;;;;;4974555;28;20132;-69
2023/04/20 05:29:58;;;;;;;7.68;3.80;;;8.40;75.70;;;;;;5002024;28;20125;-69
2023/04/20 05:32:24;;;;;;;8.88;3.63;;;8.40;75.80;;;;;;4994649;28;20235;-69
2023/04/20 05:34:50;;;;;;;6.57;3.92;;;8.40;76.40;;;;;;5002787;28;20040;-69
2023/04/20 05:37:16;;;;;;;8.77;4.57;;;8.40;77.70;;;;;;5007705;28;20115;-67
2023/04/20 05:39:41;;;;;;;10.05;4.97;;;8.30;78.90;;;;;;5002795;28;20038;-68
2023/04/20 05:42:07;;;;;;;9.75;5.38;;;8.30;80.60;;;;;;4997673;28;20034;-68
2023/04/20 05:44:35;;;;;;;9.10;5.05;;;8.20;82.90;;;;;;5004150;28;20042;-68
2023/04/20 05:47:01;;;;;;;;;;;8.10;86.10;;;;;;4994626;28;20045;-68
2023/04/20 05:49:27;;;;;;;11.77;5.38;;;8.00;87.70;;;;;;5005975;28;19929;-67
2023/04/20 05:51:52;;;;;;;11.60;5.82;;;7.90;89.70;;;;;;4996697;28;20394;-68
2023/04/20 05:54:19;;;;;;;9.43;5.50;;;7.70;91.20;;;;;;5002900;28;20045;-67
2023/04/20 05:56:45;;;;;;;8.68;5.60;;;7.60;93.30;;;;;;4999875;28;20141;-68
2023/04/20 05:59:10;;;;;;;7.72;5.50;;;7.60;95.30;;;;;;4999067;28;20157;-68
2023/04/20 06:01:36;;;;;;;10.13;6.50;;;7.50;96.50;;;;;;5000583;28;20085;-68
2023/04/20 06:04:02;;;;;;;7.70;5.75;;;7.50;97.70;;;;;;4999949;28;20034;-68
2023/04/20 06:06:27;;;;;;;13.93;6.75;;;7.50;99.10;;;;;;4999885;28;20043;-68
2023/04/20 06:08:54;;;;;;;11.10;5.97;;;7.50;99.90;;;;;;4999452;28;20076;-68
2023/04/20 06:11:19;;;;;;;9.90;5.65;;;7.40;99.90;;;;;;5002429;28;20045;-67
2023/04/20 06:13:45;;;;;;;8.85;6.40;;;7.40;99.90;;;;;;4974881;28;20748;-68
2023/04/20 06:16:11;;;;;;;9.98;6.57;;;7.40;99.90;;;;;;4993361;28;20042;-68
2023/04/20 06:18:36;;;;;;;10.13;6.70;;;7.40;99.90;;;;;;5006030;28;20042;-68
2023/04/20 06:21:03;;;;;;;9.98;5.85;;;7.40;99.90;;;;;;4979538;28;20057;-68
2023/04/20 06:23:29;;;;;;;11.43;6.28;;;7.40;99.90;;;;;;5003180;28;20469;-68
2023/04/20 06:25:55;;;;;;;9.73;6.25;;;7.40;99.90;;;;;;4994933;28;20057;-68
2023/04/20 06:28:21;;;;;;;10.43;6.00;;;7.40;99.90;;;;;;4998331;28;20050;-68
2023/04/20 06:30:46;;;;;;;10.02;5.82;;;7.40;99.90;;;;;;5005484;28;20080;-67
2023/04/20 06:33:15;;;;;;;10.02;6.03;;;7.50;99.90;;;;;;5001306;28;20034;-68
2023/04/20 06:35:42;;;;;;;11.77;6.45;;;7.50;99.90;;;;;;4980625;28;20038;-68
2023/04/20 06:38:07;;;;;;;9.20;6.03;;;7.50;99.90;;;;;;5000731;28;21157;-68
2023/04/20 06:40:33;;;;;;;9.95;5.72;;;7.50;99.90;;;;;;5004865;28;20120;-68
2023/04/20 06:42:59;;;;;;;11.90;6.20;;;7.50;99.90;;;;;;4994364;28;20145;-68
2023/04/20 06:45:24;;;;;;;11.68;5.72;;;7.50;99.90;;;;;;5003335;28;20041;-68
2023/04/20 06:47:50;;;;;;;10.85;5.93;;;7.50;99.90;;;;;;5000424;28;20050;-68
2023/04/20 06:50:16;;;;;;;10.80;5.88;;;7.50;99.90;;;;;;5003945;28;20049;-67
2023/04/20 06:52:42;;;;;;;10.50;5.60;;;7.40;99.90;;;;;;5006966;28;20038;-67
2023/04/20 06:55:09;;;;;;;9.20;5.63;;;7.50;99.90;;;;;;5001225;28;20058;-67
2023/04/20 06:57:37;;;;;;;9.98;6.00;;;7.40;99.90;;;;;;5002810;28;20085;-68
2023/04/20 07:00:07;;;;;;;10.93;5.70;;;7.40;99.90;;;;;;5002677;28;20135;-68
2023/04/20 07:02:43;;;;;;;11.65;6.15;;;7.40;99.90;;;;;;4998380;28;20474;-68
2023/04/20 07:05:09;;;;;;;8.77;6.15;;;7.50;99.90;;;;;;5001519;28;20045;-68
2023/04/20 07:07:35;;;;;;;9.38;6.00;;;7.40;99.90;;;;;;4996793;28;20054;-68
2023/04/20 07:10:00;;;;;;;9.80;5.90;;;7.40;99.90;;;;;;5000707;28;20042;-68
2023/04/20 07:12:26;;;;;;;8.75;5.95;;;7.40;99.90;;;;;;5003920;28;20096;-68
2023/04/20 07:14:53;;;;;;;8.60;6.10;;;7.40;99.90;;;;;;5004205;28;20041;-68
2023/04/20 07:17:18;;;;;;;9.80;6.17;;;7.50;99.90;;;;;;4975760;28;20461;-68
2023/04/20 07:19:44;;;;;;;9.95;5.45;;;7.50;99.90;;;;;;5001589;28;20117;-68
2023/04/20 07:22:10;;;;;;;10.38;5.50;;;7.50;99.90;;;;;;4994492;28;20042;-68
2023/04/20 07:24:35;;;;;;;8.25;5.47;;;7.60;99.90;;;;;;4996980;28;20397;-70
2023/04/20 07:27:01;;;;;;;8.65;5.05;;;7.60;99.90;;;;;;5001474;28;20042;-67
2023/04/20 07:29:27;;;;;;;8.30;5.13;;;7.60;99.90;;;;;;5002697;28;20034;-70
2023/04/20 07:31:53;;;;;;;10.68;5.50;;;7.70;99.90;;;;;;5000811;28;20187;-70
2023/04/20 07:34:18;;;;;;;9.35;5.28;;;7.70;99.90;;;;;;5008128;28;20049;-69
2023/04/20 07:36:44;;;;;;;8.48;5.50;;;7.70;99.90;;;;;;5007119;28;20449;-69
2023/04/20 07:39:10;;;;;;;7.68;5.20;;;7.70;99.90;;;;;;5008399;28;20058;-69
2023/04/20 07:41:35;;;;;;;10.75;5.60;;;7.70;99.90;;;;;;5005777;28;20080;-69
2023/04/20 07:44:01;;;;;;;8.90;5.53;;;7.70;99.90;;;;;;5005804;28;20048;-69
2023/04/20 07:46:27;;;;;;;9.15;5.57;;;7.70;99.90;;;;;;4983659;28;20053;-68
2023/04/20 07:48:53;;;;;;;8.45;5.57;;;7.80;99.90;;;;;;4998559;28;20673;-70
2023/04/20 07:51:19;;;;;;;8.90;5.38;;;7.80;99.90;;;;;;5007657;28;20076;-70
2023/04/20 07:53:44;;;;;;;8.88;5.78;;;7.80;99.90;;;;;;5009248;28;20072;-69
2023/04/20 07:56:10;;;;;;;10.50;6.28;;;7.90;99.90;;;;;;5006630;28;20058;-69
2023/04/20 07:58:37;;;;;;;10.85;6.15;;;7.90;99.90;;;;;;5005427;28;20400;-68
2023/04/20 08:01:03;;;;;;;9.85;6.07;;;7.90;99.90;;;;;;5002410;28;20042;-70
2023/04/20 08:03:29;;;;;;;10.60;6.32;;;7.90;99.90;;;;;;5006918;28;20034;-71
2023/04/20 08:05:55;;;;;;;8.60;5.93;;;7.90;99.90;;;;;;5008303;28;20092;-69
2023/04/20 08:08:20;;;;;;;9.20;6.13;;;7.90;99.90;;;;;;4990559;28;20096;-70
2023/04/20 08:10:46;;;;;;;11.95;6.18;;;7.90;99.90;;;;;;5006406;28;20089;-71
2023/04/20 08:13:12;;;;;;;11.90;6.22;;;8.00;99.90;;;;;;5007259;28;20037;-71
2023/04/20 08:15:37;;;;;;;12.25;6.72;;;8.10;99.90;;;;;;5005703;28;20677;-71
2023/04/20 08:18:06;;;;;;;8.93;6.18;;;8.10;99.90;;;;;;5002440;28;20030;-69
2023/04/20 08:20:31;;;;;;;10.00;6.80;;;8.10;99.90;;;;;;5007236;28;20050;-72
2023/04/20 08:22:57;;;;;;;10.98;6.80;;;8.20;99.90;;;;;;4984699;28;20445;-70
2023/04/20 08:25:22;;;;;;;11.45;6.93;;;8.30;99.90;;;;;;5002067;28;20041;-71
2023/04/20 08:27:48;;;;;;;10.65;6.57;;;8.40;99.90;;;;;;5001140;28;20038;-70
2023/04/20 08:30:14;;;;;;;11.35;7.00;;;8.50;99.90;;;;;;5005977;28;20449;-72
2023/04/20 08:32:39;;;;;;;9.48;6.30;;;8.50;99.90;;;;;;4991091;28;20045;-70
2023/04/20 08:35:06;;;;;;;9.23;6.82;;;8.60;99.90;;;;;;4998195;28;20133;-71
2023/04/20 08:37:31;;;;;;;9.98;6.45;;;8.60;99.90;;;;;;5007345;28;20038;-71
2023/04/20 08:39:57;;;;;;;11.80;7.00;;;8.70;99.90;;;;;;5006974;28;20644;-69
2023/04/20 08:42:23;;;;;;;12.05;6.63;;;8.80;99.90;;;;;;5007981;28;20097;-70
2023/04/20 08:44:48;;;;;;;11.23;7.00;;;8.80;99.90;;;;;;4997610;28;20042;-70
2023/04/20 08:47:14;;;;;;;9.45;6.50;;;8.90;99.90;;;;;;5009781;28;20414;-69
2023/04/20 08:49:42;;;;;;;10.73;6.95;;;9.00;99.90;;;;;;5005662;28;20103;-70
2023/04/20 08:52:10;;;;;;;15.38;6.93;;;9.00;99.90;;;;;;4998435;28;20084;-68
2023/04/20 08:54:37;;;;;;;12.55;7.32;;;9.00;99.90;;;;;;5006603;28;20062;-69
2023/04/20 08:57:03;;;;;;;12.48;7.50;;;9.00;99.90;;;;;;4990378;28;20047;-68
2023/04/20 08:59:29;;;;;;;11.57;7.18;;;9.00;99.90;;;;;;4989857;28;20145;-68
2023/04/20 09:01:55;;;;;;;11.17;7.77;;;9.00;99.90;;;;;;4998908;28;20045;-69
2023/04/20 09:04:23;;;;;;;9.38;7.15;;;9.00;99.90;;;;;;5007988;28;20049;-69
2023/04/20 09:06:50;;;;;;;9.45;7.55;;;9.10;99.90;;;;;;5003232;28;21297;-68
2023/04/20 09:09:21;;;;;;;13.45;8.43;;;9.30;99.90;;;;;;5000780;28;20128;-69
2023/04/20 09:12:06;;;;;;;12.85;8.50;;;9.40;99.90;;;;;;5006604;28;20497;-69
2023/04/20 09:14:45;;;;;;;14.45;7.88;;;9.40;99.90;;;;;;4985916;28;20413;-70
2023/04/20 09:17:13;;;;;;;12.13;7.95;;;9.50;99.90;;;;;;4993332;28;20515;-70
2023/04/20 09:19:40;;;;;;;12.88;8.27;;;9.50;99.90;;;;;;4984100;28;20052;-70
2023/04/20 09:22:08;;;;;;;12.73;8.00;;;9.40;99.90;;;;;;5000224;28;20044;-70
2023/04/20 09:24:36;;;;;;;10.63;8.60;;;9.30;99.90;;;;;;4994295;28;20050;-72
2023/04/20 09:27:16;;;;;;;11.60;9.13;;;9.20;99.90;;;;;;4990561;28;20048;-71
2023/04/20 09:29:42;;;;;;;10.38;8.70;;;9.10;99.90;;;;;;4967377;28;20054;-74
2023/04/20 09:32:25;;;;;;;11.07;9.00;;;9.10;99.90;;;;;;4996330;28;20068;-70
2023/04/20 09:34:51;;;;;;;11.07;8.82;;;9.10;99.90;;;;;;5006027;28;20138;-71
2023/04/20 09:37:16;;;;;;;13.90;9.50;;;9.00;99.90;;;;;;5004603;28;20508;-71
2023/04/20 09:39:43;;;;;;;11.65;9.45;;;9.00;99.90;;;;;;4988519;28;20050;-72
2023/04/20 09:42:16;;;;;;;10.98;9.60;;;9.00;99.90;;;;;;4999992;28;20524;-68
2023/04/20 09:44:42;;;;;;;13.90;9.57;;;9.00;99.90;;;;;;5001458;28;20552;-67
2023/04/20 09:47:17;;;;;;;13.63;9.77;;;9.00;99.90;;;;;;5002017;28;20038;-69
2023/04/20 09:49:46;;;;;;;14.63;9.63;;;9.00;99.90;;;;;;5007446;28;20046;-69
2023/04/20 09:52:17;;;;;;;15.50;9.45;;;9.00;99.90;;;;;;4999134;28;20048;-69
2023/04/20 09:54:44;;;;;;;13.52;9.82;;;9.00;99.90;;;;;;5005205;28;20054;-69
2023/04/20 09:57:12;;;;;;;15.05;10.75;;;9.10;99.90;;;;;;5004618;28;20129;-70
2023/04/20 09:59:39;;;;;;;13.75;9.98;;;9.10;99.90;;;;;;4995331;28;20050;-70
2023/04/20 10:02:11;;;;;;;13.57;10.00;;;9.10;99.90;;;;;;4994726;28;20100;-70
2023/04/20 10:04:49;;;;;;;12.73;10.75;;;9.00;99.90;;;;;;4975736;28;20568;-69
2023/04/20 10:07:22;;;;;;;12.43;11.13;;;9.10;99.90;;;;;;4995004;28;20053;-69
2023/04/20 10:09:48;;;;;;;14.63;11.55;;;9.10;99.90;;;;;;5003391;28;20046;-68
2023/04/20 10:12:14;;;;;;;13.07;10.93;;;9.10;99.90;;;;;;4998953;28;20072;-72
2023/04/20 10:14:39;;;;;;;13.73;11.50;;;9.10;99.90;;;;;;5000861;28;20045;-75
2023/04/20 10:17:07;;;;;;;13.70;11.68;;;9.20;99.90;;;;;;5008851;28;20286;-73
2023/04/20 10:19:40;;;;;;;;;;;9.20;99.90;;;;;;4993048;28;20100;-71
2023/04/20 10:22:07;;;;;;;14.15;12.50;;;9.20;99.90;;;;;;5009830;28;21443;-71
2023/04/20 10:24:33;;;;;;;13.77;12.07;;;9.20;99.90;;;;;;5009249;28;20050;-71
2023/04/20 10:26:59;;;;;;;15.25;12.52;;;9.20;99.90;;;;;;5009206;28;20034;-71
2023/04/20 10:29:28;;;;;;;13.48;12.15;;;9.20;99.90;;;;;;5001241;28;20125;-72
2023/04/20 10:31:54;;;;;;;13.70;12.30;;;9.30;99.90;;;;;;5005663;28;20436;-70
2023/04/20 10:34:30;;;;;;;14.43;12.00;;;9.40;99.90;;;;;;5007120;28;20045;-70
2023/04/20 10:37:15;;;;;;;13.82;12.32;;;9.50;99.90;;;;;;4996057;28;20074;-71
2023/04/20 10:39:47;;;;;;;16.50;13.32;;;9.60;99.90;;;;;;4995176;28;20482;-69
2023/04/20 10:42:13;;;;;;;14.73;12.20;;;9.70;99.90;;;;;;5002269;28;20054;-72
2023/04/20 10:44:49;;;;;;;15.05;12.57;;;9.90;99.90;;;;;;5009982;28;20081;-72
2023/04/20 10:47:36;;;;;;;13.63;10.63;;;10.20;99.90;;;;;;4999382;28;20313;-71
2023/04/20 10:50:28;;;;;;;12.15;10.45;;;10.40;99.90;;;;;;4997960;28;20042;-72
2023/04/20 10:52:54;;;;;;;11.65;9.88;;;10.60;99.90;;;;;;5005535;28;20047;-71
2023/04/20 10:55:25;;;;;;;10.98;9.18;;;10.60;99.90;;;;;;5008822;28;20046;-70
2023/04/20 10:57:52;;;;;;;12.02;10.75;;;10.70;99.90;;;;;;4980767;28;20057;-71
2023/04/20 11:00:20;;;;;;;12.00;10.40;;;10.80;99.90;;;;;;5002281;28;20038;-71
2023/04/20 11:02:57;;;;;;;11.35;10.15;;;10.80;99.90;;;;;;4999041;28;20145;-71
2023/04/20 11:05:26;;;;;;;12.75;10.05;;;10.80;99.90;;;;;;5000150;28;20396;-73
2023/04/20 11:07:54;;;;;;;12.18;10.05;;;10.70;99.90;;;;;;4987556;28;20603;-73
2023/04/20 11:10:23;;;;;;;11.55;9.80;;;10.70;99.90;;;;;;5007657;28;20045;-69
2023/04/20 11:12:49;;;;;;;10.85;9.75;;;10.70;99.90;;;;;;4996126;28;20672;-72
2023/04/20 11:15:15;;;;;;;11.40;9.23;;;10.70;99.70;;;;;;4982743;28;20085;-69
2023/04/20 11:17:41;;;;;;;11.52;9.75;;;10.70;99.30;;;;;;5009695;28;20516;-70
2023/04/20 11:20:13;;;;;;;11.63;9.98;;;10.60;98.30;;;;;;5009835;28;20046;-70
2023/04/20 11:22:39;;;;;;;12.07;9.77;;;10.50;97.90;;;;;;5003106;28;20104;-70
2023/04/20 11:25:09;;;;;;;13.88;9.50;;;10.50;98.30;;;;;;5002785;28;20042;-70
2023/04/20 11:27:39;;;;;;;10.48;9.35;;;10.50;98.80;;;;;;4999810;28;20057;-69
2023/04/20 11:30:06;;;;;;;10.70;9.60;;;10.50;99.40;;;;;;5006429;28;20489;-69
2023/04/20 11:32:32;;;;;;;11.10;8.93;;;10.60;99.10;;;;;;5000763;28;20049;-69
2023/04/20 11:35:06;;;;;;;10.57;8.77;;;10.80;98.80;;;;;;5003759;28;20034;-69
2023/04/20 11:37:49;;;;;;;13.10;9.52;;;10.90;99.10;;;;;;5000718;28;20048;-69
2023/04/20 11:40:15;;;;;;;13.15;10.07;;;11.00;97.40;;;;;;5000398;28;20044;-69
2023/04/20 11:42:41;;;;;;;12.77;11.10;;;10.90;96.60;;;;;;4995394;28;20041;-69
2023/04/20 11:45:07;;;;;;;12.32;9.50;;;10.80;96.70;;;;;;5007996;28;20053;-69
2023/04/20 11:47:33;;;;;;;11.65;10.20;;;10.70;96.80;;;;;;4990870;28;20099;-69
2023/04/20 11:49:59;;;;;;;10.55;9.45;;;10.60;96.90;;;;;;5005232;28;20674;-69
2023/04/20 11:52:24;;;;;;;12.00;9.65;;;10.60;96.50;;;;;;4995435;28;20061;-73
2023/04/20 11:54:56;;;;;;;10.82;9.43;;;10.60;96.00;;;;;;5006543;28;20062;-73
2023/04/20 11:57:24;;;;;;;13.80;9.10;;;10.70;96.90;;;;;;5008240;28;20046;-72
2023/04/20 11:59:50;;;;;;;12.55;8.20;;;10.90;96.10;;;;;;5002617;28;20517;-72
2023/04/20 12:02:15;;;;;;;10.27;8.20;;;11.00;94.90;;;;;;5002059;28;20044;-72
2023/04/20 12:04:41;;;;;;;11.27;8.48;;;11.20;94.60;;;;;;4981874;28;20049;-71
2023/04/20 12:07:08;;;;;;;12.45;8.27;;;11.50;95.00;;;;;;4985197;28;20474;-72
2023/04/20 12:09:37;;;;;;;11.27;9.57;;;11.80;94.60;;;;;;4995726;28;20050;-73
2023/04/20 12:12:04;;;;;;;13.23;9.70;;;12.00;94.10;;;;;;5004392;28;20096;-72
2023/04/20 12:14:33;;;;;;;11.07;9.15;;;11.90;92.40;;;;;;5005483;28;20069;-72
2023/04/20 12:16:59;;;;;;;11.73;9.32;;;11.80;92.00;;;;;;5008256;28;20038;-71
2023/04/20 12:19:25;;;;;;;10.70;8.40;;;11.80;92.20;;;;;;5003665;28;20038;-72
2023/04/20 12:21:51;;;;;;;11.00;8.38;;;11.70;91.70;;;;;;4986124;28;20057;-73
2023/04/20 12:24:16;;;;;;;12.82;8.07;;;11.60;90.80;;;;;;4976326;28;20046;-68
2023/04/20 12:26:42;;;;;;;11.90;8.73;;;11.50;90.60;;;;;;4982569;28;20537;-68
2023/04/20 12:29:08;;;;;;;10.55;8.60;;;11.50;90.70;;;;;;5006522;28;20057;-68
2023/04/20 12:31:34;;;;;;;11.25;8.18;;;11.40;90.80;;;;;;5006664;28;20128;-68
2023/04/20 12:34:00;;;;;;;11.50;8.27;;;11.40;91.40;;;;;;5007328;28;20052;-67
2023/04/20 12:36:26;;;;;;;9.68;8.00;;;11.40;91.50;;;;;;4989474;28;20592;-68
2023/04/20 12:38:54;;;;;;;10.77;8.38;;;11.30;91.40;;;;;;5008270;28;20124;-70
2023/04/20 12:41:21;;;;;;;10.05;8.07;;;11.30;91.40;;;;;;4985534;28;20072;-68
2023/04/20 12:43:48;;;;;;;10.70;8.40;;;11.30;91.20;;;;;;4989476;28;20557;-67
2023/04/20 12:46:14;;;;;;;12.77;8.57;;;11.30;90.80;;;;;;4985894;28;20057;-70
2023/04/20 12:48:40;;;;;;;12.23;8.45;;;11.40;91.30;;;;;;4989800;28;20293;-69